createdAt,value
2019-06-27T00:00:10.362Z,3.70
2019-06-27T00:01:10.366Z,3.50
2019-06-27T00:02:10.370Z,3.70
2019-06-27T00:03:10.367Z,3.50
2019-06-27T00:04:10.385Z,3.70
2019-06-27T00:05:10.376Z,3.70
2019-06-27T00:06:10.372Z,3.60
2019-06-27T00:07:10.373Z,3.40
2019-06-27T00:08:10.376Z,3.50
2019-06-27T00:09:10.378Z,3.60
2019-06-27T00:10:10.377Z,3.50
2019-06-27T00:11:10.426Z,3.40
2019-06-27T00:12:10.385Z,3.50
2019-06-27T00:13:10.384Z,3.60
2019-06-27T00:14:10.382Z,3.30
2019-06-27T00:15:10.386Z,3.40
2019-06-27T00:16:10.387Z,3.40
2019-06-27T00:17:10.390Z,3.40
2019-06-27T00:18:10.386Z,3.50
2019-06-27T00:19:10.391Z,3.60
2019-06-27T00:20:10.388Z,3.60
2019-06-27T00:21:10.389Z,3.40
2019-06-27T00:22:10.396Z,3.50
2019-06-27T00:23:10.387Z,3.50
2019-06-27T00:24:10.390Z,3.60
2019-06-27T00:25:10.395Z,3.80
2019-06-27T00:26:10.391Z,3.60
2019-06-27T00:27:10.402Z,3.90
2019-06-27T00:28:10.404Z,3.60
2019-06-27T00:29:10.396Z,3.80
2019-06-27T00:30:10.393Z,3.80
2019-06-27T00:31:10.396Z,3.80
2019-06-27T00:32:10.397Z,3.50
2019-06-27T00:33:10.402Z,3.50
2019-06-27T00:34:10.399Z,3.70
2019-06-27T00:35:10.398Z,3.90
2019-06-27T00:36:10.400Z,3.90
2019-06-27T00:37:10.406Z,3.70
2019-06-27T00:38:10.401Z,3.70
2019-06-27T00:39:10.399Z,3.80
2019-06-27T00:40:10.400Z,3.90
2019-06-27T00:41:10.403Z,3.70
2019-06-27T00:42:10.399Z,3.60
2019-06-27T00:43:10.403Z,4.00
2019-06-27T00:44:10.401Z,3.70
2019-06-27T00:45:10.581Z,3.50
2019-06-27T00:46:10.405Z,3.70
2019-06-27T00:47:10.402Z,3.60
2019-06-27T00:48:10.405Z,3.80
2019-06-27T00:49:10.399Z,3.40
2019-06-27T00:50:10.406Z,3.50
2019-06-27T00:51:10.405Z,3.50
2019-06-27T00:52:10.407Z,3.70
2019-06-27T00:53:10.407Z,3.80
2019-06-27T00:54:10.402Z,3.70
2019-06-27T00:55:10.404Z,3.70
2019-06-27T00:56:10.406Z,3.40
2019-06-27T00:57:14.552Z,3.60
2019-06-27T00:58:10.409Z,3.40
2019-06-27T00:59:10.403Z,3.60
2019-06-27T01:00:10.430Z,3.30
2019-06-27T01:01:10.420Z,3.70
2019-06-27T01:02:10.421Z,3.60
2019-06-27T01:03:10.408Z,3.90
2019-06-27T01:04:10.410Z,3.30
2019-06-27T01:05:10.408Z,3.30
2019-06-27T01:06:10.406Z,3.60
2019-06-27T01:07:10.404Z,3.80
2019-06-27T01:08:10.413Z,3.70
2019-06-27T01:09:10.404Z,3.70
2019-06-27T01:10:10.411Z,3.50
2019-06-27T01:11:10.406Z,3.20
2019-06-27T01:12:10.403Z,3.40
2019-06-27T01:13:10.406Z,3.60
2019-06-27T01:14:10.404Z,3.50
2019-06-27T01:15:10.401Z,3.60
2019-06-27T01:16:10.406Z,3.40
2019-06-27T01:17:10.413Z,3.00
2019-06-27T01:18:10.404Z,3.10
2019-06-27T01:19:10.408Z,3.30
2019-06-27T01:20:10.409Z,3.10
2019-06-27T01:21:10.409Z,3.10
2019-06-27T01:22:10.403Z,3.20
2019-06-27T01:23:10.409Z,3.10
2019-06-27T01:24:10.419Z,2.90
2019-06-27T01:25:10.405Z,3.10
2019-06-27T01:26:10.403Z,2.70
2019-06-27T01:27:10.405Z,3.00
2019-06-27T01:28:10.403Z,2.90
2019-06-27T01:29:10.406Z,3.10
2019-06-27T01:30:10.399Z,3.00
2019-06-27T01:31:10.422Z,2.70
2019-06-27T01:32:10.403Z,2.80
2019-06-27T01:33:10.400Z,2.90
2019-06-27T01:34:10.399Z,2.90
2019-06-27T01:35:10.404Z,2.80
2019-06-27T01:36:10.413Z,2.70
2019-06-27T01:37:10.402Z,2.60
2019-06-27T01:38:10.400Z,2.80
2019-06-27T01:39:10.401Z,2.90
2019-06-27T01:40:10.403Z,2.70
2019-06-27T01:41:10.405Z,2.60
2019-06-27T01:42:10.399Z,2.70
2019-06-27T01:43:10.398Z,2.80
2019-06-27T01:44:10.399Z,2.80
2019-06-27T01:45:10.400Z,2.60
2019-06-27T01:46:10.397Z,2.70
2019-06-27T01:47:10.397Z,2.70
2019-06-27T01:48:10.399Z,2.60
2019-06-27T01:49:10.395Z,2.60
2019-06-27T01:50:10.400Z,2.80
2019-06-27T01:51:10.399Z,2.80
2019-06-27T01:52:10.396Z,2.70
2019-06-27T01:53:10.393Z,2.60
2019-06-27T01:54:10.390Z,2.80
2019-06-27T01:55:10.391Z,2.80
2019-06-27T01:56:10.399Z,2.80
2019-06-27T01:57:10.390Z,2.60
2019-06-27T01:58:10.388Z,2.90
2019-06-27T01:59:10.390Z,2.60
2019-06-27T02:00:10.394Z,3.00
2019-06-27T02:01:10.396Z,2.70
2019-06-27T02:02:10.387Z,2.80
2019-06-27T02:03:10.391Z,2.70
2019-06-27T02:04:10.400Z,2.70
2019-06-27T02:05:10.387Z,2.90
2019-06-27T02:06:10.386Z,2.60
2019-06-27T02:07:10.384Z,2.80
2019-06-27T02:08:10.393Z,2.60
2019-06-27T02:09:10.387Z,2.70
2019-06-27T02:10:10.385Z,3.00
2019-06-27T02:11:10.391Z,2.70
2019-06-27T02:12:10.384Z,2.70
2019-06-27T02:13:10.382Z,2.70
2019-06-27T02:14:10.380Z,2.80
2019-06-27T02:15:10.385Z,2.80
2019-06-27T02:16:10.382Z,2.70
2019-06-27T02:17:10.386Z,3.00
2019-06-27T02:18:10.372Z,2.70
2019-06-27T02:19:10.404Z,2.90
2019-06-27T02:20:10.378Z,2.90
2019-06-27T02:21:10.378Z,2.90
2019-06-27T02:22:10.374Z,2.80
2019-06-27T02:23:10.376Z,3.20
2019-06-27T02:24:10.376Z,3.10
2019-06-27T02:25:10.375Z,3.30
2019-06-27T02:26:10.385Z,3.30
2019-06-27T02:27:10.370Z,3.40
2019-06-27T02:28:10.374Z,3.10
2019-06-27T02:29:10.369Z,3.10
2019-06-27T02:30:10.374Z,3.20
2019-06-27T02:31:10.373Z,3.10
2019-06-27T02:32:10.374Z,3.10
2019-06-27T02:33:10.373Z,3.40
2019-06-27T02:34:10.368Z,3.10
2019-06-27T02:35:10.395Z,3.20
2019-06-27T02:36:10.367Z,3.00
2019-06-27T02:37:10.411Z,3.20
2019-06-27T02:38:10.366Z,3.20
2019-06-27T02:39:10.365Z,3.10
2019-06-27T02:40:10.367Z,3.00
2019-06-27T02:41:10.362Z,3.20
2019-06-27T02:42:10.365Z,3.00
2019-06-27T02:43:10.382Z,3.30
2019-06-27T02:44:10.362Z,3.10
2019-06-27T02:45:10.363Z,3.10
2019-06-27T02:46:10.359Z,3.30
2019-06-27T02:47:10.364Z,2.90
2019-06-27T02:48:10.362Z,3.30
2019-06-27T02:49:10.356Z,3.30
2019-06-27T02:50:10.470Z,3.10
2019-06-27T02:51:10.351Z,2.90
2019-06-27T02:52:10.347Z,3.20
2019-06-27T02:53:10.360Z,3.00
2019-06-27T02:54:10.347Z,3.20
2019-06-27T02:55:10.353Z,3.30
2019-06-27T02:56:10.350Z,3.20
2019-06-27T02:57:10.348Z,3.00
2019-06-27T02:58:28.837Z,2.90
2019-06-27T02:59:10.348Z,3.20
2019-06-27T03:00:10.349Z,3.40
2019-06-27T03:01:10.343Z,2.90
2019-06-27T03:02:10.340Z,3.00
2019-06-27T03:03:10.340Z,3.20
2019-06-27T03:04:10.337Z,3.00
2019-06-27T03:05:10.349Z,3.00
2019-06-27T03:06:10.342Z,3.00
2019-06-27T03:07:10.337Z,3.00
2019-06-27T03:08:10.335Z,2.80
2019-06-27T03:09:10.345Z,3.20
2019-06-27T03:10:10.333Z,3.00
2019-06-27T03:11:10.332Z,3.20
2019-06-27T03:12:10.337Z,3.10
2019-06-27T03:13:10.331Z,3.00
2019-06-27T03:14:10.335Z,3.00
2019-06-27T03:15:10.353Z,3.10
2019-06-27T03:16:10.325Z,2.90
2019-06-27T03:17:10.340Z,3.00
2019-06-27T03:18:10.321Z,2.90
2019-06-27T03:19:10.322Z,3.20
2019-06-27T03:20:10.343Z,3.10
2019-06-27T03:21:10.324Z,3.10
2019-06-27T03:22:10.319Z,2.90
2019-06-27T03:23:10.323Z,3.10
2019-06-27T03:24:10.323Z,2.80
2019-06-27T03:25:10.319Z,2.90
2019-06-27T03:26:10.318Z,2.90
2019-06-27T03:27:10.315Z,2.80
2019-06-27T03:28:10.314Z,2.80
2019-06-27T03:29:10.323Z,3.10
2019-06-27T03:30:10.315Z,2.90
2019-06-27T03:31:10.349Z,3.00
2019-06-27T03:32:10.340Z,2.70
2019-06-27T03:33:10.312Z,3.10
2019-06-27T03:34:10.309Z,2.80
2019-06-27T03:35:10.319Z,2.80
2019-06-27T03:36:10.310Z,3.00
2019-06-27T03:37:10.310Z,2.80
2019-06-27T03:38:10.313Z,2.80
2019-06-27T03:39:10.306Z,2.90
2019-06-27T03:40:10.300Z,2.60
2019-06-27T03:41:10.327Z,2.60
2019-06-27T03:42:10.296Z,2.50
2019-06-27T03:43:10.297Z,2.80
2019-06-27T03:44:10.295Z,2.70
2019-06-27T03:45:15.037Z,2.70
2019-06-27T03:46:10.296Z,2.90
2019-06-27T03:47:10.293Z,2.60
2019-06-27T03:48:10.295Z,2.70
2019-06-27T03:49:10.307Z,2.40
2019-06-27T03:50:10.296Z,2.20
2019-06-27T03:51:10.291Z,2.60
2019-06-27T03:52:10.292Z,2.30
2019-06-27T03:53:10.293Z,2.60
2019-06-27T03:54:10.287Z,2.50
2019-06-27T03:55:10.291Z,2.30
2019-06-27T03:56:10.289Z,2.50
2019-06-27T03:57:10.285Z,2.20
2019-06-27T03:58:10.285Z,2.70
2019-06-27T03:59:12.817Z,2.70
2019-06-27T04:00:10.432Z,2.50
2019-06-27T04:01:10.283Z,2.40
2019-06-27T04:02:10.282Z,2.30
2019-06-27T04:03:10.305Z,2.40
2019-06-27T04:04:10.301Z,2.40
2019-06-27T04:05:10.282Z,2.50
2019-06-27T04:06:10.284Z,2.30
2019-06-27T04:07:10.280Z,2.70
2019-06-27T04:08:10.278Z,2.50
2019-06-27T04:09:10.275Z,2.70
2019-06-27T04:10:10.276Z,2.50
2019-06-27T04:11:10.286Z,3.00
2019-06-27T04:12:10.270Z,2.70
2019-06-27T04:13:10.274Z,2.40
2019-06-27T04:14:10.280Z,2.70
2019-06-27T04:15:10.298Z,2.40
2019-06-27T04:16:10.269Z,2.70
2019-06-27T04:17:10.286Z,2.50
2019-06-27T04:18:10.266Z,2.40
2019-06-27T04:19:10.267Z,2.60
2019-06-27T04:20:10.273Z,2.30
2019-06-27T04:21:10.265Z,2.40
2019-06-27T04:22:10.267Z,2.50
2019-06-27T04:23:10.260Z,2.60
2019-06-27T04:24:10.265Z,2.60
2019-06-27T04:25:10.263Z,2.60
2019-06-27T04:26:10.260Z,2.60
2019-06-27T04:27:10.266Z,2.30
2019-06-27T04:28:10.294Z,2.50
2019-06-27T04:29:10.265Z,2.40
2019-06-27T04:30:10.270Z,2.30
2019-06-27T04:31:10.259Z,2.50
2019-06-27T04:32:10.269Z,2.40
2019-06-27T04:33:10.259Z,2.70
2019-06-27T04:34:10.255Z,2.60
2019-06-27T04:35:10.269Z,2.80
2019-06-27T04:36:10.274Z,2.60
2019-06-27T04:37:10.261Z,2.70
2019-06-27T04:38:10.263Z,2.40
2019-06-27T04:39:10.252Z,2.50
2019-06-27T04:40:10.259Z,2.50
2019-06-27T04:41:10.263Z,2.70
2019-06-27T04:42:10.253Z,2.70
2019-06-27T04:43:10.257Z,2.60
2019-06-27T04:44:10.253Z,2.50
2019-06-27T04:45:10.266Z,2.60
2019-06-27T04:46:10.252Z,2.90
2019-06-27T04:47:10.258Z,2.60
2019-06-27T04:48:10.254Z,2.60
2019-06-27T04:49:13.393Z,2.80
2019-06-27T04:50:10.253Z,2.60
2019-06-27T04:51:10.250Z,2.40
2019-06-27T04:52:10.253Z,2.50
2019-06-27T04:53:10.247Z,2.30
2019-06-27T04:54:10.250Z,2.60
2019-06-27T04:55:10.254Z,2.60
2019-06-27T04:56:10.248Z,2.60
2019-06-27T04:57:10.250Z,2.50
2019-06-27T04:58:10.251Z,2.40
2019-06-27T04:59:10.249Z,2.20
2019-06-27T05:00:10.247Z,2.60
2019-06-27T05:01:10.251Z,2.40
2019-06-27T05:02:10.248Z,2.50
2019-06-27T05:03:10.249Z,2.80
2019-06-27T05:04:10.251Z,2.50
2019-06-27T05:05:10.249Z,2.40
2019-06-27T05:06:10.325Z,2.10
2019-06-27T05:07:10.252Z,2.00
2019-06-27T05:08:14.380Z,2.60
2019-06-27T05:09:10.250Z,2.70
2019-06-27T05:10:10.251Z,2.50
2019-06-27T05:11:10.250Z,2.50
2019-06-27T05:12:10.249Z,2.60
2019-06-27T05:13:10.249Z,2.50
2019-06-27T05:14:10.247Z,2.40
2019-06-27T05:15:10.253Z,2.50
2019-06-27T05:16:10.258Z,2.50
2019-06-27T05:17:10.251Z,2.60
2019-06-27T05:18:10.254Z,2.60
2019-06-27T05:19:10.252Z,2.40
2019-06-27T05:20:10.257Z,2.60
2019-06-27T05:21:10.252Z,2.60
2019-06-27T05:22:10.255Z,2.70
2019-06-27T05:23:10.308Z,2.50
2019-06-27T05:24:10.254Z,3.10
2019-06-27T05:25:10.254Z,2.50
2019-06-27T05:26:10.255Z,2.30
2019-06-27T05:27:10.254Z,2.30
2019-06-27T05:28:10.256Z,2.60
2019-06-27T05:29:10.259Z,2.90
2019-06-27T05:30:10.669Z,2.40
2019-06-27T05:31:10.262Z,2.50
2019-06-27T05:32:10.288Z,2.70
2019-06-27T05:33:10.261Z,2.60
2019-06-27T05:34:10.266Z,2.40
2019-06-27T05:35:10.338Z,2.50
2019-06-27T05:36:10.579Z,2.80
2019-06-27T05:37:10.264Z,2.50
2019-06-27T05:38:10.267Z,2.70
2019-06-27T05:39:10.263Z,2.70
2019-06-27T05:40:10.261Z,2.70
2019-06-27T05:41:10.282Z,2.80
2019-06-27T05:42:10.270Z,2.80
2019-06-27T05:43:10.272Z,2.70
2019-06-27T05:44:10.285Z,2.60
2019-06-27T05:45:10.270Z,1.90
2019-06-27T05:46:10.273Z,2.20
2019-06-27T05:47:10.274Z,2.10
2019-06-27T05:48:10.279Z,2.60
2019-06-27T05:49:10.287Z,2.40
2019-06-27T05:50:10.282Z,2.50
2019-06-27T05:51:10.283Z,2.50
2019-06-27T05:52:10.288Z,2.20
2019-06-27T05:53:10.301Z,2.30
2019-06-27T05:54:10.289Z,2.30
2019-06-27T05:55:10.291Z,2.80
2019-06-27T05:56:10.291Z,2.40
2019-06-27T05:57:10.299Z,2.60
2019-06-27T05:58:10.295Z,2.40
2019-06-27T05:59:10.300Z,2.60
2019-06-27T06:00:26.838Z,2.50
2019-06-27T06:01:10.344Z,2.50
2019-06-27T06:02:10.315Z,2.50
2019-06-27T06:03:10.303Z,2.50
2019-06-27T06:04:10.307Z,2.60
2019-06-27T06:05:10.324Z,2.70
2019-06-27T06:06:10.312Z,2.60
2019-06-27T06:07:10.313Z,2.80
2019-06-27T06:08:10.311Z,2.90
2019-06-27T06:09:10.314Z,2.80
2019-06-27T06:10:10.316Z,2.30
2019-06-27T06:11:10.320Z,2.50
2019-06-27T06:12:10.326Z,2.40
2019-06-27T06:13:10.325Z,2.60
2019-06-27T06:14:10.321Z,2.40
2019-06-27T06:15:10.326Z,2.50
2019-06-27T06:16:10.330Z,2.60
2019-06-27T06:17:10.330Z,2.50
2019-06-27T06:18:10.335Z,2.30
2019-06-27T06:19:10.333Z,2.50
2019-06-27T06:20:10.337Z,2.50
2019-06-27T06:21:10.337Z,2.80
2019-06-27T06:22:10.365Z,2.80
2019-06-27T06:23:10.346Z,2.50
2019-06-27T06:24:10.347Z,2.70
2019-06-27T06:25:10.356Z,2.70
2019-06-27T06:26:10.359Z,2.60
2019-06-27T06:27:10.348Z,2.70
2019-06-27T06:28:10.358Z,2.80
2019-06-27T06:29:10.364Z,2.80
2019-06-27T06:30:10.363Z,2.80
2019-06-27T06:31:11.221Z,2.60
2019-06-27T06:32:10.374Z,2.70
2019-06-27T06:33:10.394Z,2.60
2019-06-27T06:34:10.376Z,2.50
2019-06-27T06:35:10.380Z,2.70
2019-06-27T06:36:10.392Z,2.70
2019-06-27T06:37:10.395Z,2.30
2019-06-27T06:38:10.388Z,2.60
2019-06-27T06:39:10.395Z,2.50
2019-06-27T06:40:10.400Z,2.40
2019-06-27T06:41:10.397Z,2.60
2019-06-27T06:42:10.410Z,2.70
2019-06-27T06:43:10.406Z,2.80
2019-06-27T06:44:10.409Z,2.50
2019-06-27T06:45:10.410Z,2.70
2019-06-27T06:46:10.413Z,2.50
2019-06-27T06:47:10.441Z,2.80
2019-06-27T06:48:10.425Z,2.50
2019-06-27T06:49:10.430Z,2.50
2019-06-27T06:50:10.431Z,2.60
2019-06-27T06:51:10.434Z,2.40
2019-06-27T06:52:10.441Z,2.60
2019-06-27T06:53:10.447Z,2.80
2019-06-27T06:54:10.449Z,2.60
2019-06-27T06:55:10.448Z,2.50
2019-06-27T06:56:10.451Z,2.50
2019-06-27T06:57:10.462Z,2.40
2019-06-27T06:58:10.461Z,2.50
2019-06-27T06:59:10.463Z,2.60
2019-06-27T07:00:10.487Z,2.40
2019-06-27T07:01:10.477Z,2.50
2019-06-27T07:02:10.474Z,2.50
2019-06-27T07:03:10.480Z,2.60
2019-06-27T07:04:10.526Z,2.40
2019-06-27T07:05:10.489Z,2.40
2019-06-27T07:06:10.485Z,2.50
2019-06-27T07:07:13.163Z,2.50
2019-06-27T07:08:10.500Z,2.70
2019-06-27T07:09:10.520Z,2.50
2019-06-27T07:10:10.499Z,2.40
2019-06-27T07:11:10.510Z,2.40
2019-06-27T07:12:10.517Z,2.40
2019-06-27T07:13:10.512Z,2.40
2019-06-27T07:14:10.518Z,2.50
2019-06-27T07:15:10.521Z,2.40
2019-06-27T07:16:10.523Z,2.50
2019-06-27T07:17:10.529Z,2.70
2019-06-27T07:18:10.531Z,2.50
2019-06-27T07:19:10.532Z,2.20
2019-06-27T07:20:10.547Z,2.40
2019-06-27T07:21:10.543Z,2.30
2019-06-27T07:22:10.568Z,2.30
2019-06-27T07:23:10.577Z,2.40
2019-06-27T07:24:10.557Z,2.30
2019-06-27T07:25:10.556Z,2.20
2019-06-27T07:26:10.560Z,2.40
2019-06-27T07:27:10.569Z,2.50
2019-06-27T07:28:10.570Z,2.30
2019-06-27T07:29:10.596Z,2.40
2019-06-27T07:30:10.583Z,2.30
2019-06-27T07:31:17.765Z,2.20
2019-06-27T07:32:10.585Z,2.10
2019-06-27T07:33:10.595Z,2.30
2019-06-27T07:34:10.593Z,2.30
2019-06-27T07:35:10.605Z,2.30
2019-06-27T07:36:10.599Z,2.40
2019-06-27T07:37:10.609Z,2.30
2019-06-27T07:38:10.614Z,2.20
2019-06-27T07:39:10.624Z,2.30
2019-06-27T07:40:10.621Z,2.20
2019-06-27T07:41:10.627Z,2.30
2019-06-27T07:42:10.641Z,2.20
2019-06-27T07:43:10.638Z,2.40
2019-06-27T07:44:10.637Z,2.30
2019-06-27T07:45:10.642Z,2.30
2019-06-27T07:46:24.022Z,2.00
2019-06-27T07:47:10.653Z,2.40
2019-06-27T07:48:10.658Z,2.30
2019-06-27T07:49:10.672Z,2.60
2019-06-27T07:50:10.670Z,2.20
2019-06-27T07:51:10.670Z,2.50
2019-06-27T07:52:10.675Z,2.40
2019-06-27T07:53:10.709Z,2.50
2019-06-27T07:54:10.687Z,2.50
2019-06-27T07:55:10.694Z,2.40
2019-06-27T07:56:10.698Z,2.40
2019-06-27T07:57:10.708Z,2.50
2019-06-27T07:58:10.708Z,2.20
2019-06-27T07:59:10.715Z,2.50
2019-06-27T08:00:10.719Z,2.40
2019-06-27T08:01:10.725Z,2.40
2019-06-27T08:02:10.728Z,2.10
2019-06-27T08:03:10.734Z,2.50
2019-06-27T08:04:10.743Z,2.30
2019-06-27T08:05:10.751Z,2.40
2019-06-27T08:06:10.765Z,2.40
2019-06-27T08:07:10.752Z,2.60
2019-06-27T08:08:10.761Z,2.20
2019-06-27T08:09:10.770Z,2.50
2019-06-27T08:10:10.775Z,2.40
2019-06-27T08:11:10.784Z,2.40
2019-06-27T08:12:10.804Z,2.40
2019-06-27T08:13:10.795Z,2.20
2019-06-27T08:14:10.792Z,2.50
2019-06-27T08:15:10.807Z,2.60
2019-06-27T08:16:10.806Z,2.40
2019-06-27T08:17:10.813Z,2.20
2019-06-27T08:18:10.818Z,2.20
2019-06-27T08:19:10.826Z,2.50
2019-06-27T08:20:10.832Z,2.40
2019-06-27T08:21:10.838Z,2.30
2019-06-27T08:22:10.845Z,2.30
2019-06-27T08:23:10.854Z,2.30
2019-06-27T08:24:10.861Z,2.30
2019-06-27T08:25:10.864Z,2.20
2019-06-27T08:26:10.888Z,2.10
2019-06-27T08:27:10.879Z,2.10
2019-06-27T08:28:10.889Z,2.20
2019-06-27T08:29:10.897Z,2.20
2019-06-27T08:30:10.903Z,2.20
2019-06-27T08:31:10.989Z,2.20
2019-06-27T08:32:10.911Z,2.20
2019-06-27T08:33:10.918Z,2.30
2019-06-27T08:34:10.925Z,2.40
2019-06-27T08:35:10.932Z,2.50
2019-06-27T08:36:10.949Z,2.40
2019-06-27T08:37:10.946Z,2.40
2019-06-27T08:38:10.953Z,2.30
2019-06-27T08:39:10.958Z,2.20
2019-06-27T08:40:10.965Z,2.30
2019-06-27T08:41:13.962Z,2.10
2019-06-27T08:42:10.979Z,2.60
2019-06-27T08:43:10.987Z,2.20
2019-06-27T08:44:10.995Z,2.30
2019-06-27T08:45:11.002Z,2.10
2019-06-27T08:46:11.008Z,2.30
2019-06-27T08:47:11.016Z,2.40
2019-06-27T08:48:11.023Z,2.60
2019-06-27T08:49:11.036Z,2.50
2019-06-27T08:50:11.055Z,2.30
2019-06-27T08:51:11.045Z,2.40
2019-06-27T08:52:11.053Z,2.40
2019-06-27T08:53:11.066Z,2.00
2019-06-27T08:54:11.071Z,2.00
2019-06-27T08:55:11.077Z,2.20
2019-06-27T08:56:11.083Z,2.00
2019-06-27T08:57:11.090Z,2.40
2019-06-27T08:58:11.099Z,2.30
2019-06-27T08:59:11.108Z,2.30
2019-06-27T09:00:11.116Z,2.20
2019-06-27T09:01:11.123Z,2.40
2019-06-27T09:02:11.133Z,2.20
2019-06-27T09:03:11.145Z,2.30
2019-06-27T09:04:11.152Z,2.40
2019-06-27T09:05:11.152Z,2.40
2019-06-27T09:06:11.159Z,2.40
2019-06-27T09:07:11.171Z,2.30
2019-06-27T09:08:11.171Z,2.50
2019-06-27T09:09:11.180Z,2.20
2019-06-27T09:10:11.183Z,2.40
2019-06-27T09:11:11.192Z,2.60
2019-06-27T09:12:11.192Z,2.30
2019-06-27T09:13:11.203Z,2.40
2019-06-27T09:14:11.220Z,2.50
2019-06-27T09:15:11.215Z,2.50
2019-06-27T09:16:11.213Z,2.50
2019-06-27T09:17:11.215Z,2.20
2019-06-27T09:18:11.224Z,2.40
2019-06-27T09:19:11.225Z,2.30
2019-06-27T09:20:11.248Z,2.40
2019-06-27T09:21:11.235Z,2.10
2019-06-27T09:22:11.241Z,2.20
2019-06-27T09:23:11.239Z,2.30
2019-06-27T09:24:11.245Z,2.20
2019-06-27T09:25:11.248Z,2.10
2019-06-27T09:26:11.274Z,2.40
2019-06-27T09:27:11.257Z,2.10
2019-06-27T09:28:11.254Z,2.30
2019-06-27T09:29:11.272Z,2.30
2019-06-27T09:30:11.266Z,2.10
2019-06-27T09:31:11.364Z,2.30
2019-06-27T09:32:24.801Z,2.20
2019-06-27T09:33:11.270Z,2.40
2019-06-27T09:34:11.279Z,2.30
2019-06-27T09:35:11.274Z,2.20
2019-06-27T09:36:11.279Z,2.30
2019-06-27T09:37:11.288Z,2.30
2019-06-27T09:38:11.281Z,2.10
2019-06-27T09:39:11.288Z,2.60
2019-06-27T09:40:11.286Z,2.10
2019-06-27T09:41:11.310Z,2.20
2019-06-27T09:42:11.291Z,2.10
2019-06-27T09:43:11.294Z,2.30
2019-06-27T09:44:11.289Z,2.30
2019-06-27T09:45:11.295Z,2.20
2019-06-27T09:46:11.320Z,2.30
2019-06-27T09:47:11.308Z,2.10
2019-06-27T09:48:11.301Z,2.30
2019-06-27T09:49:11.309Z,2.60
2019-06-27T09:50:11.306Z,2.40
2019-06-27T09:51:11.306Z,2.40
2019-06-27T09:52:11.312Z,2.20
2019-06-27T09:53:11.318Z,2.40
2019-06-27T09:54:11.317Z,2.20
2019-06-27T09:55:11.348Z,2.30
2019-06-27T09:56:11.321Z,2.30
2019-06-27T09:57:11.322Z,2.30
2019-06-27T09:58:11.330Z,2.30
2019-06-27T09:59:11.327Z,2.30
2019-06-27T10:00:11.328Z,2.60
2019-06-27T10:01:11.331Z,2.40
2019-06-27T10:02:11.326Z,2.10
2019-06-27T10:03:11.332Z,2.30
2019-06-27T10:04:11.329Z,2.50
2019-06-27T10:05:11.337Z,2.60
2019-06-27T10:06:11.336Z,2.20
2019-06-27T10:07:11.339Z,2.60
2019-06-27T10:08:11.359Z,2.60
2019-06-27T10:09:11.381Z,2.10
2019-06-27T10:10:11.344Z,2.30
2019-06-27T10:11:11.357Z,2.30
2019-06-27T10:12:11.350Z,2.20
2019-06-27T10:13:11.345Z,2.40
2019-06-27T10:14:11.349Z,2.40
2019-06-27T10:15:11.351Z,2.30
2019-06-27T10:16:11.357Z,2.40
2019-06-27T10:17:11.358Z,2.40
2019-06-27T10:18:11.355Z,2.40
2019-06-27T10:19:11.360Z,2.10
2019-06-27T10:20:11.361Z,2.20
2019-06-27T10:21:11.362Z,2.40
2019-06-27T10:22:11.360Z,2.60
2019-06-27T10:23:11.366Z,2.40
2019-06-27T10:24:11.367Z,2.20
2019-06-27T10:25:11.363Z,2.30
2019-06-27T10:26:11.367Z,2.50
2019-06-27T10:27:11.583Z,2.30
2019-06-27T10:28:11.378Z,2.20
2019-06-27T10:29:11.381Z,2.20
2019-06-27T10:30:11.372Z,2.30
2019-06-27T10:31:11.376Z,2.20
2019-06-27T10:32:11.380Z,2.60
2019-06-27T10:33:11.378Z,2.50
2019-06-27T10:34:11.377Z,2.40
2019-06-27T10:35:11.381Z,2.40
2019-06-27T10:36:11.386Z,2.40
2019-06-27T10:37:11.384Z,2.50
2019-06-27T10:38:11.399Z,2.20
2019-06-27T10:39:11.388Z,2.30
2019-06-27T10:40:11.399Z,2.40
2019-06-27T10:41:11.392Z,2.20
2019-06-27T10:42:11.391Z,2.00
2019-06-27T10:43:11.395Z,2.40
2019-06-27T10:44:11.391Z,2.30
2019-06-27T10:45:11.398Z,2.30
2019-06-27T10:46:11.402Z,2.20
2019-06-27T10:47:11.405Z,2.40
2019-06-27T10:48:11.401Z,2.20
2019-06-27T10:49:11.403Z,2.20
2019-06-27T10:50:11.411Z,2.50
2019-06-27T10:51:11.410Z,2.00
2019-06-27T10:52:11.407Z,2.30
2019-06-27T10:53:11.407Z,2.20
2019-06-27T10:54:11.411Z,2.10
2019-06-27T10:55:11.413Z,2.10
2019-06-27T10:56:11.413Z,2.10
2019-06-27T10:57:11.410Z,2.30
2019-06-27T10:58:11.413Z,2.30
2019-06-27T10:59:11.416Z,2.30
2019-06-27T11:01:11.508Z,2.30
2019-06-27T11:04:12.374Z,2.40
2019-06-27T11:06:11.723Z,2.10
2019-06-27T11:07:11.851Z,2.60
2019-06-27T11:08:11.708Z,2.60
2019-06-27T11:10:12.627Z,2.70
2019-06-27T11:11:11.952Z,2.40
2019-06-27T11:12:12.480Z,2.60
2019-06-27T11:13:12.866Z,2.40
2019-06-27T11:15:12.733Z,2.30
2019-06-27T11:22:12.294Z,2.20
2019-06-27T11:23:13.010Z,2.40
2019-06-27T11:25:12.039Z,2.20
2019-06-27T11:27:14.374Z,2.20
2019-06-27T11:28:11.644Z,2.30
2019-06-27T11:34:05.835Z,2.00
2019-06-27T11:35:59.317Z,2.10
2019-06-27T11:40:37.434Z,2.10
2019-06-27T11:41:28.974Z,1.70
2019-06-27T11:44:53.029Z,2.00
2019-06-27T11:46:54.574Z,2.20
2019-06-27T11:47:52.748Z,2.30
2019-06-27T11:48:53.021Z,2.20
2019-06-27T11:51:53.330Z,2.10
2019-06-27T11:52:52.751Z,2.00
2019-06-27T11:54:53.204Z,2.10
2019-06-27T11:56:53.661Z,2.10
2019-06-27T12:00:32.937Z,2.10
2019-06-27T12:01:32.913Z,1.90
2019-06-27T12:02:32.908Z,2.10
2019-06-27T12:03:48.215Z,2.00
2019-06-27T12:04:32.914Z,1.70
2019-06-27T12:05:32.918Z,2.00
2019-06-27T12:06:32.917Z,2.00
2019-06-27T12:07:32.917Z,2.00
2019-06-27T12:08:32.924Z,1.90
2019-06-27T12:09:32.926Z,2.30
2019-06-27T12:10:32.922Z,1.80
2019-06-27T12:11:32.925Z,2.10
2019-06-27T12:12:32.927Z,1.90
2019-06-27T12:13:32.925Z,1.80
2019-06-27T12:14:32.933Z,1.80
2019-06-27T12:15:32.934Z,1.80
2019-06-27T12:16:32.936Z,2.10
2019-06-27T12:17:32.935Z,1.90
2019-06-27T12:18:32.940Z,2.10
2019-06-27T12:19:32.943Z,2.00
2019-06-27T12:20:32.941Z,1.80
2019-06-27T12:21:32.942Z,1.90
2019-06-27T12:22:32.945Z,2.00
2019-06-27T12:23:32.949Z,2.00
2019-06-27T12:24:32.951Z,1.60
2019-06-27T12:25:32.944Z,1.70
2019-06-27T12:26:32.950Z,1.90
2019-06-27T12:27:32.957Z,1.90
2019-06-27T12:28:32.969Z,2.10
2019-06-27T12:29:32.957Z,1.80
2019-06-27T12:30:32.964Z,2.20
2019-06-27T12:31:32.960Z,2.00
2019-06-27T12:32:47.169Z,2.10
2019-06-27T12:33:32.967Z,1.80
2019-06-27T12:34:32.975Z,1.90
2019-06-27T12:35:32.968Z,1.90
2019-06-27T12:36:32.967Z,1.70
2019-06-27T12:37:32.972Z,2.00
2019-06-27T12:38:32.975Z,2.00
2019-06-27T12:39:32.997Z,1.80
2019-06-27T12:40:32.983Z,1.50
2019-06-27T12:41:32.977Z,1.60
2019-06-27T12:42:33.115Z,1.90
2019-06-27T12:43:32.996Z,1.70
2019-06-27T12:44:32.992Z,1.90
2019-06-27T12:45:32.987Z,1.80
2019-06-27T12:46:32.989Z,1.70
2019-06-27T12:47:32.992Z,1.70
2019-06-27T12:48:32.997Z,1.80
2019-06-27T12:49:50.147Z,1.90
2019-06-27T12:50:32.995Z,1.60
2019-06-27T12:51:33.002Z,1.80
2019-06-27T12:52:33.011Z,1.70
2019-06-27T12:53:33.004Z,1.80
2019-06-27T12:54:33.010Z,1.50
2019-06-27T12:55:33.008Z,1.70
2019-06-27T12:56:33.011Z,1.80
2019-06-27T12:57:33.012Z,1.80
2019-06-27T12:58:33.013Z,1.80
2019-06-27T12:59:33.021Z,1.50
2019-06-27T13:00:33.018Z,1.50
2019-06-27T13:01:33.021Z,1.70
2019-06-27T13:02:33.023Z,1.60
2019-06-27T13:03:33.030Z,1.60
2019-06-27T13:04:33.028Z,1.70
2019-06-27T13:05:33.029Z,1.50
2019-06-27T13:06:33.051Z,1.90
2019-06-27T13:07:34.229Z,1.90
2019-06-27T13:08:33.068Z,1.60
2019-06-27T13:09:33.035Z,1.80
2019-06-27T13:10:35.520Z,1.70
2019-06-27T13:11:33.043Z,1.70
2019-06-27T13:12:33.049Z,1.90
2019-06-27T13:13:33.044Z,1.70
2019-06-27T13:14:33.050Z,1.80
2019-06-27T13:15:33.045Z,1.80
2019-06-27T13:16:33.057Z,1.60
2019-06-27T13:17:33.050Z,1.70
2019-06-27T13:18:33.054Z,1.80
2019-06-27T13:19:33.057Z,1.70
2019-06-27T13:20:33.073Z,1.60
2019-06-27T13:21:33.059Z,1.50
2019-06-27T13:22:33.061Z,1.20
2019-06-27T13:23:33.069Z,1.70
2019-06-27T13:24:33.070Z,1.60
2019-06-27T13:25:34.289Z,1.60
2019-06-27T13:26:33.076Z,1.80
2019-06-27T13:27:33.108Z,1.50
2019-06-27T13:28:33.150Z,1.70
2019-06-27T13:29:33.081Z,1.60
2019-06-27T13:30:33.239Z,1.70
2019-06-27T13:31:33.092Z,1.60
2019-06-27T13:32:33.082Z,1.90
2019-06-27T13:33:33.085Z,1.60
2019-06-27T13:34:40.539Z,1.60
2019-06-27T13:35:33.094Z,1.70
2019-06-27T13:36:33.564Z,1.90
2019-06-27T13:37:33.101Z,1.90
2019-06-27T13:38:33.127Z,1.80
2019-06-27T13:39:33.101Z,1.80
2019-06-27T13:40:33.113Z,1.90
2019-06-27T13:41:33.109Z,1.60
2019-06-27T13:42:33.110Z,1.80
2019-06-27T13:43:33.112Z,1.90
2019-06-27T13:44:33.149Z,1.90
2019-06-27T13:45:33.114Z,1.80
2019-06-27T13:46:33.168Z,1.60
2019-06-27T13:47:33.126Z,1.80
2019-06-27T13:48:33.123Z,1.90
2019-06-27T13:49:33.138Z,1.80
2019-06-27T13:50:33.131Z,1.80
2019-06-27T13:51:33.133Z,1.60